Latest Weather Observations for Spitfire Channel

IDQ60801

Issued at 5:02 am EST Friday 22 September 2017 (issued every 30 minutes, with the page automatically refreshed every 10 minutes)

About weather observations | Map of weather stations | Latest weather observations for QLD | Other Formats
Station Details ID: 040927 Name: SPITFIRE CHANNEL BEACON Lat: -27.05 Lon: 153.27 Height: 7.0 m
Data from the previous 72 hours. | See also: Recent months for locations in Queensland
Date/Time
EST
Temp
°C
App
Temp
°C
Dew
Point
°C
Rel
Hum
%
Delta-T
°C
Wind Press
QNH
hPa
Press
MSL
hPa
Rain since
9am
mm
Dir  Spd
km/h
Gust
km/h
Spd
kts
Gust
kts
22/05:00am - - - - - NW 13 19 7 10 - - -
22/04:30am - - - - - NW 11 17 6 9 - - -
22/04:00am - - - - - NNW 11 15 6 8 - - -
22/03:30am - - - - - NW 6 11 3 6 - - -
22/03:00am - - - - - NW 9 15 5 8 - - -
22/02:30am - - - - - NW 13 17 7 9 - - -
22/02:00am - - - - - NNW 11 15 6 8 - - -
22/01:30am - - - - - N 15 19 8 10 - - -
22/01:00am - - - - - N 19 22 10 12 - - -
22/12:30am - - - - - N 19 24 10 13 - - -
22/12:00am - - - - - N 24 28 13 15 - - -
 
Date/Time
EST
Temp
°C
App
Temp
°C
Dew
Point
°C
Rel
Hum
%
Delta-T
°C
Wind Press
QNH
hPa
Press
MSL
hPa
Rain since
9am
mm
Dir  Spd
km/h
Gust
km/h
Spd
kts
Gust
kts
21/11:30pm - - - - - N 24 30 13 16 - - -
21/11:00pm - - - - - N 24 30 13 16 - - -
21/10:30pm - - - - - N 24 28 13 15 - - -
21/10:00pm - - - - - N 20 24 11 13 - - -
21/09:30pm - - - - - N 24 28 13 15 - - -
21/09:00pm - - - - - N 24 28 13 15 - - -
21/08:30pm - - - - - NNE 22 26 12 14 - - -
21/08:00pm - - - - - N 24 32 13 17 - - -
21/07:30pm - - - - - N 26 32 14 17 - - -
21/07:00pm - - - - - N 28 32 15 17 - - -
21/06:30pm - - - - - N 30 33 16 18 - - -
21/06:00pm - - - - - N 28 32 15 17 - - -
21/05:30pm - - - - - N 28 32 15 17 - - -
21/05:00pm - - - - - NNE 26 30 14 16 - - -
21/04:30pm - - - - - NNE 24 28 13 15 - - -
21/04:00pm - - - - - NNE 26 30 14 16 - - -
21/03:30pm - - - - - NNE 26 32 14 17 - - -
21/03:00pm - - - - - NNE 24 32 13 17 - - -
21/02:30pm - - - - - NNE 24 28 13 15 - - -
21/02:00pm - - - - - NNE 20 24 11 13 - - -
21/01:30pm - - - - - NNE 19 22 10 12 - - -
21/01:00pm - - - - - NNE 20 22 11 12 - - -
21/12:30pm - - - - - NNE 19 20 10 11 - - -
21/12:00pm - - - - - NE 17 20 9 11 - - -
21/11:30am - - - - - NE 15 17 8 9 - - -
21/11:00am - - - - - NE 15 17 8 9 - - -
21/10:30am - - - - - NE 13 17 7 9 - - -
21/10:00am - - - - - NE 15 17 8 9 - - -
21/09:30am - - - - - NE 13 17 7 9 - - -
21/09:00am - - - - - NE 15 19 8 10 - - -
21/08:30am - - - - - NE 15 19 8 10 - - -
21/08:00am - - - - - NE 15 17 8 9 - - -
21/07:30am - - - - - NE 15 19 8 10 - - -
21/07:00am - - - - - NE 15 17 8 9 - - -
21/06:30am - - - - - NE 15 19 8 10 - - -
21/06:00am - - - - - NE 15 19 8 10 - - -
21/05:30am - - - - - NE 13 15 7 8 - - -
21/05:00am - - - - - ENE 13 17 7 9 - - -
21/04:30am - - - - - ENE 13 17 7 9 - - -
21/04:00am - - - - - ENE 15 17 8 9 - - -
21/03:30am - - - - - ENE 15 19 8 10 - - -
21/03:00am - - - - - ENE 13 15 7 8 - - -
21/02:30am - - - - - ENE 13 15 7 8 - - -
21/02:00am - - - - - ENE 13 17 7 9 - - -
21/01:30am - - - - - ENE 17 19 9 10 - - -
21/01:00am - - - - - ENE 15 17 8 9 - - -
21/12:30am - - - - - ENE 13 17 7 9 - - -
21/12:00am - - - - - ENE 13 17 7 9 - - -
 
Date/Time
EST
Temp
°C
App
Temp
°C
Dew
Point
°C
Rel
Hum
%
Delta-T
°C
Wind Press
QNH
hPa
Press
MSL
hPa
Rain since
9am
mm
Dir  Spd
km/h
Gust
km/h
Spd
kts
Gust
kts
20/11:30pm - - - - - ENE 15 17 8 9 - - -
20/11:00pm - - - - - ENE 15 17 8 9 - - -
20/10:30pm - - - - - E 11 15 6 8 - - -
20/10:00pm - - - - - E 13 15 7 8 - - -
20/09:30pm - - - - - ENE 15 19 8 10 - - -
20/09:00pm - - - - - E 15 17 8 9 - - -
20/08:30pm - - - - - E 15 17 8 9 - - -
20/08:00pm - - - - - ENE 15 17 8 9 - - -
20/07:30pm - - - - - E 15 19 8 10 - - -
20/07:00pm - - - - - ENE 17 20 9 11 - - -
20/06:30pm - - - - - ENE 17 22 9 12 - - -
20/06:00pm - - - - - ENE 19 26 10 14 - - -
20/05:30pm - - - - - E 22 26 12 14 - - -
20/05:00pm - - - - - ENE 24 30 13 16 - - -
20/04:30pm - - - - - E 26 32 14 17 - - -
20/04:00pm - - - - - E 24 30 13 16 - - -
20/03:30pm - - - - - E 26 30 14 16 - - -
20/03:00pm - - - - - E 26 28 14 15 - - -
20/02:30pm - - - - - E 24 28 13 15 - - -
20/02:00pm - - - - - ESE 20 24 11 13 - - -
20/01:30pm - - - - - ESE 20 24 11 13 - - -
20/01:00pm - - - - - ESE 20 22 11 12 - - -
20/12:30pm - - - - - ESE 20 24 11 13 - - -
20/12:00pm - - - - - ESE 20 24 11 13 - - -
20/11:30am - - - - - SSE 20 24 11 13 - - -
20/11:00am - - - - - SSE 20 24 11 13 - - -
20/10:30am - - - - - SSE 22 26 12 14 - - -
20/10:00am - - - - - SSE 24 26 13 14 - - -
20/09:30am - - - - - SSE 22 26 12 14 - - -
20/09:00am - - - - - SSE 22 26 12 14 - - -
20/08:30am - - - - - SSE 26 32 14 17 - - -
20/08:00am - - - - - SE 30 37 16 20 - - -
20/07:30am - - - - - SE 30 35 16 19 - - -
20/07:00am - - - - - SE 26 33 14 18 - - -
20/06:30am - - - - - SE 30 35 16 19 - - -
20/06:00am - - - - - SE 30 33 16 18 - - -
20/05:30am - - - - - SE 28 33 15 18 - - -
20/05:00am - - - - - SE 24 28 13 15 - - -
20/04:30am - - - - - S 13 17 7 9 - - -
20/04:00am - - - - - W 7 11 4 6 - - -
20/03:30am - - - - - NW 9 13 5 7 - - -
20/03:00am - - - - - NW 11 17 6 9 - - -
20/02:30am - - - - - NW 15 19 8 10 - - -
20/02:00am - - - - - NNW 20 22 11 12 - - -
20/01:30am - - - - - NNW 22 26 12 14 - - -
20/01:00am - - - - - NNW 19 22 10 12 - - -
20/12:30am - - - - - NNW 20 24 11 13 - - -
20/12:00am - - - - - NW 15 22 8 12 - - -
 
Date/Time
EST
Temp
°C
App
Temp
°C
Dew
Point
°C
Rel
Hum
%
Delta-T
°C
Wind Press
QNH
hPa
Press
MSL
hPa
Rain since
9am
mm
Dir  Spd
km/h
Gust
km/h
Spd
kts
Gust
kts
19/11:30pm - - - - - NNW 33 39 18 21 - - -
19/11:00pm - - - - - NNW 35 43 19 23 - - -
19/10:30pm - - - - - NNW 39 48 21 26 - - -
19/10:00pm - - - - - NNW 39 50 21 27 - - -
19/09:30pm - - - - - NNW 43 50 23 27 - - -
19/09:00pm - - - - - NNW 41 50 22 27 - - -
19/08:30pm - - - - - NNW 41 50 22 27 - - -
19/08:00pm - - - - - NNW 41 50 22 27 - - -
19/07:30pm - - - - - N 41 48 22 26 - - -
19/07:00pm - - - - - N 39 46 21 25 - - -
19/06:30pm - - - - - N 37 44 20 24 - - -
19/06:00pm - - - - - N 39 46 21 25 - - -
19/05:30pm - - - - - N 39 46 21 25 - - -
19/05:00pm - - - - - N 37 44 20 24 - - -
19/04:30pm - - - - - N 37 44 20 24 - - -
19/04:00pm - - - - - N 30 33 16 18 - - -
19/03:30pm - - - - - N 28 35 15 19 - - -
19/03:00pm - - - - - N 32 37 17 20 - - -
19/02:30pm - - - - - N 30 35 16 19 - - -
19/02:00pm - - - - - N 28 32 15 17 - - -
19/01:30pm - - - - - N 30 33 16 18 - - -
19/01:00pm - - - - - N 28 33 15 18 - - -
19/12:30pm - - - - - N 24 28 13 15 - - -
19/12:00pm - - - - - N 19 26 10 14 - - -
19/11:30am - - - - - N 15 19 8 10 - - -
19/11:00am - - - - - N 13 15 7 8 - - -
19/10:30am - - - - - NNW 7 9 4 5 - - -
19/10:00am - - - - - NNW 9 11 5 6 - - -
19/09:30am - - - - - NW 11 17 6 9 - - -
19/09:00am - - - - - WNW 13 17 7 9 - - -
19/08:30am - - - - - W 13 15 7 8 - - -
19/08:00am - - - - - WNW 15 17 8 9 - - -
19/07:30am - - - - - WNW 9 11 5 6 - - -
19/07:00am - - - - - W 11 13 6 7 - - -
19/06:30am - - - - - WNW 15 17 8 9 - - -
19/06:00am - - - - - NW 15 20 8 11 - - -
19/05:30am - - - - - NW 13 17 7 9 - - -

Other Formats:

Comma delimited format used in spreadsheet applications
http://www.bom.gov.au/fwo/IDQ60801/IDQ60801.94581.axf

JavaScript Object Notation format (JSON) in row-major order
http://www.bom.gov.au/fwo/IDQ60801/IDQ60801.94581.json